sensor_id;sensor_type;location;lat;lon;timestamp;P1;durP1;ratioP1;P2;durP2;ratioP2
4895;SDS011;2463;49.948;8.472;2024-02-26T00:01:54;87.95;;;4.80;;
4895;SDS011;2463;49.948;8.472;2024-02-26T00:04:21;87.53;;;4.60;;
4895;SDS011;2463;49.948;8.472;2024-02-26T00:06:48;88.38;;;4.75;;
4895;SDS011;2463;49.948;8.472;2024-02-26T00:09:17;87.22;;;4.35;;
4895;SDS011;2463;49.948;8.472;2024-02-26T00:11:44;87.32;;;4.50;;
4895;SDS011;2463;49.948;8.472;2024-02-26T00:14:11;87.53;;;4.13;;
4895;SDS011;2463;49.948;8.472;2024-02-26T00:16:39;88.30;;;4.60;;
4895;SDS011;2463;49.948;8.472;2024-02-26T00:19:07;86.47;;;4.63;;
4895;SDS011;2463;49.948;8.472;2024-02-26T00:21:34;91.25;;;4.90;;
4895;SDS011;2463;49.948;8.472;2024-02-26T00:24:00;88.65;;;4.88;;
4895;SDS011;2463;49.948;8.472;2024-02-26T00:26:27;87.43;;;4.60;;
4895;SDS011;2463;49.948;8.472;2024-02-26T00:28:54;87.75;;;4.60;;
4895;SDS011;2463;49.948;8.472;2024-02-26T00:31:20;90.95;;;4.80;;
4895;SDS011;2463;49.948;8.472;2024-02-26T00:33:47;88.47;;;4.65;;
4895;SDS011;2463;49.948;8.472;2024-02-26T00:36:14;89.15;;;4.68;;
4895;SDS011;2463;49.948;8.472;2024-02-26T00:38:40;89.38;;;5.13;;
4895;SDS011;2463;49.948;8.472;2024-02-26T00:41:09;89.38;;;4.88;;
4895;SDS011;2463;49.948;8.472;2024-02-26T00:43:35;87.90;;;4.80;;
4895;SDS011;2463;49.948;8.472;2024-02-26T00:46:04;88.55;;;4.80;;
4895;SDS011;2463;49.948;8.472;2024-02-26T00:48:31;87.72;;;4.53;;
4895;SDS011;2463;49.948;8.472;2024-02-26T00:50:57;88.72;;;5.05;;
4895;SDS011;2463;49.948;8.472;2024-02-26T00:53:24;87.85;;;4.60;;
4895;SDS011;2463;49.948;8.472;2024-02-26T00:55:51;88.57;;;4.93;;
4895;SDS011;2463;49.948;8.472;2024-02-26T00:58:18;88.78;;;4.88;;
4895;SDS011;2463;49.948;8.472;2024-02-26T01:00:45;89.07;;;4.70;;
4895;SDS011;2463;49.948;8.472;2024-02-26T01:03:11;90.70;;;5.40;;
4895;SDS011;2463;49.948;8.472;2024-02-26T01:05:38;87.93;;;4.68;;
4895;SDS011;2463;49.948;8.472;2024-02-26T01:08:05;88.53;;;5.00;;
4895;SDS011;2463;49.948;8.472;2024-02-26T01:10:32;88.40;;;4.70;;
4895;SDS011;2463;49.948;8.472;2024-02-26T01:12:59;88.13;;;4.55;;
4895;SDS011;2463;49.948;8.472;2024-02-26T01:15:26;88.55;;;4.80;;
4895;SDS011;2463;49.948;8.472;2024-02-26T01:17:53;87.63;;;4.60;;
4895;SDS011;2463;49.948;8.472;2024-02-26T01:20:20;88.47;;;4.82;;
4895;SDS011;2463;49.948;8.472;2024-02-26T01:22:47;88.88;;;4.75;;
4895;SDS011;2463;49.948;8.472;2024-02-26T01:25:13;88.32;;;4.80;;
4895;SDS011;2463;49.948;8.472;2024-02-26T01:27:41;88.55;;;4.80;;
4895;SDS011;2463;49.948;8.472;2024-02-26T01:30:10;87.07;;;4.70;;
4895;SDS011;2463;49.948;8.472;2024-02-26T01:32:37;88.05;;;4.50;;
4895;SDS011;2463;49.948;8.472;2024-02-26T01:35:04;88.75;;;4.88;;
4895;SDS011;2463;49.948;8.472;2024-02-26T01:37:33;89.15;;;4.55;;
4895;SDS011;2463;49.948;8.472;2024-02-26T01:40:00;88.68;;;4.55;;
4895;SDS011;2463;49.948;8.472;2024-02-26T01:42:30;88.30;;;4.55;;
4895;SDS011;2463;49.948;8.472;2024-02-26T01:45:01;88.65;;;4.88;;
4895;SDS011;2463;49.948;8.472;2024-02-26T01:47:28;88.45;;;4.60;;
4895;SDS011;2463;49.948;8.472;2024-02-26T01:49:55;88.43;;;4.70;;
4895;SDS011;2463;49.948;8.472;2024-02-26T01:52:22;88.28;;;4.82;;
4895;SDS011;2463;49.948;8.472;2024-02-26T01:54:49;88.32;;;4.78;;
4895;SDS011;2463;49.948;8.472;2024-02-26T01:57:16;88.13;;;4.63;;
4895;SDS011;2463;49.948;8.472;2024-02-26T01:59:43;89.00;;;5.18;;
4895;SDS011;2463;49.948;8.472;2024-02-26T02:02:10;88.93;;;4.72;;
4895;SDS011;2463;49.948;8.472;2024-02-26T02:04:38;87.95;;;4.47;;
4895;SDS011;2463;49.948;8.472;2024-02-26T02:07:05;89.22;;;4.97;;
4895;SDS011;2463;49.948;8.472;2024-02-26T02:09:32;88.10;;;4.53;;
4895;SDS011;2463;49.948;8.472;2024-02-26T02:11:59;87.85;;;4.70;;
4895;SDS011;2463;49.948;8.472;2024-02-26T02:14:27;87.22;;;4.40;;
4895;SDS011;2463;49.948;8.472;2024-02-26T02:16:53;88.82;;;4.93;;
4895;SDS011;2463;49.948;8.472;2024-02-26T02:19:20;88.50;;;4.70;;
4895;SDS011;2463;49.948;8.472;2024-02-26T02:21:47;88.13;;;4.70;;
4895;SDS011;2463;49.948;8.472;2024-02-26T02:24:13;87.63;;;4.60;;
4895;SDS011;2463;49.948;8.472;2024-02-26T02:26:40;87.68;;;4.82;;
4895;SDS011;2463;49.948;8.472;2024-02-26T02:29:07;88.25;;;4.68;;
4895;SDS011;2463;49.948;8.472;2024-02-26T02:31:35;88.45;;;4.80;;
4895;SDS011;2463;49.948;8.472;2024-02-26T02:34:02;89.13;;;5.13;;
4895;SDS011;2463;49.948;8.472;2024-02-26T02:36:29;89.07;;;4.93;;
4895;SDS011;2463;49.948;8.472;2024-02-26T02:38:56;88.30;;;4.85;;
4895;SDS011;2463;49.948;8.472;2024-02-26T02:41:23;89.47;;;4.75;;
4895;SDS011;2463;49.948;8.472;2024-02-26T02:43:50;89.20;;;4.75;;
4895;SDS011;2463;49.948;8.472;2024-02-26T02:46:16;87.63;;;4.57;;
4895;SDS011;2463;49.948;8.472;2024-02-26T02:48:43;87.80;;;4.70;;
4895;SDS011;2463;49.948;8.472;2024-02-26T02:51:11;88.32;;;4.85;;
4895;SDS011;2463;49.948;8.472;2024-02-26T02:53:37;88.22;;;4.82;;
4895;SDS011;2463;49.948;8.472;2024-02-26T02:56:04;88.10;;;4.50;;
4895;SDS011;2463;49.948;8.472;2024-02-26T02:58:31;88.22;;;4.82;;
4895;SDS011;2463;49.948;8.472;2024-02-26T03:00:58;88.75;;;4.28;;
4895;SDS011;2463;49.948;8.472;2024-02-26T03:03:26;89.68;;;4.97;;
4895;SDS011;2463;49.948;8.472;2024-02-26T03:05:54;87.65;;;4.65;;
4895;SDS011;2463;49.948;8.472;2024-02-26T03:08:21;88.07;;;4.85;;
4895;SDS011;2463;49.948;8.472;2024-02-26T03:10:48;89.68;;;5.25;;
4895;SDS011;2463;49.948;8.472;2024-02-26T03:13:15;89.95;;;5.07;;
4895;SDS011;2463;49.948;8.472;2024-02-26T03:15:41;88.15;;;4.40;;
4895;SDS011;2463;49.948;8.472;2024-02-26T03:18:08;88.63;;;5.25;;
4895;SDS011;2463;49.948;8.472;2024-02-26T03:20:35;92.15;;;4.72;;
4895;SDS011;2463;49.948;8.472;2024-02-26T03:23:03;86.88;;;4.78;;
4895;SDS011;2463;49.948;8.472;2024-02-26T03:25:30;88.43;;;4.70;;
4895;SDS011;2463;49.948;8.472;2024-02-26T03:27:56;88.18;;;4.50;;
4895;SDS011;2463;49.948;8.472;2024-02-26T03:30:23;88.93;;;4.78;;
4895;SDS011;2463;49.948;8.472;2024-02-26T03:32:50;91.93;;;4.78;;
4895;SDS011;2463;49.948;8.472;2024-02-26T03:35:16;88.57;;;4.55;;
4895;SDS011;2463;49.948;8.472;2024-02-26T03:37:43;88.15;;;4.60;;
4895;SDS011;2463;49.948;8.472;2024-02-26T03:40:11;89.40;;;5.20;;
4895;SDS011;2463;49.948;8.472;2024-02-26T03:42:40;88.15;;;4.80;;
4895;SDS011;2463;49.948;8.472;2024-02-26T03:45:07;88.43;;;4.60;;
4895;SDS011;2463;49.948;8.472;2024-02-26T03:47:37;87.93;;;4.70;;
4895;SDS011;2463;49.948;8.472;2024-02-26T03:50:06;90.28;;;4.93;;
4895;SDS011;2463;49.948;8.472;2024-02-26T03:52:33;88.40;;;5.10;;
4895;SDS011;2463;49.948;8.472;2024-02-26T03:55:00;87.57;;;4.60;;
4895;SDS011;2463;49.948;8.472;2024-02-26T03:57:26;88.72;;;4.80;;
4895;SDS011;2463;49.948;8.472;2024-02-26T03:59:53;89.05;;;4.60;;
4895;SDS011;2463;49.948;8.472;2024-02-26T04:02:20;88.60;;;5.00;;
4895;SDS011;2463;49.948;8.472;2024-02-26T04:04:46;87.68;;;4.55;;
4895;SDS011;2463;49.948;8.472;2024-02-26T04:07:14;87.13;;;4.90;;
4895;SDS011;2463;49.948;8.472;2024-02-26T04:09:40;88.95;;;4.80;;
4895;SDS011;2463;49.948;8.472;2024-02-26T04:12:07;90.47;;;5.70;;
4895;SDS011;2463;49.948;8.472;2024-02-26T04:14:35;88.63;;;5.60;;
4895;SDS011;2463;49.948;8.472;2024-02-26T04:17:02;89.22;;;5.05;;
4895;SDS011;2463;49.948;8.472;2024-02-26T04:19:29;88.05;;;5.20;;
4895;SDS011;2463;49.948;8.472;2024-02-26T04:21:56;90.78;;;4.93;;
4895;SDS011;2463;49.948;8.472;2024-02-26T04:24:22;88.88;;;4.95;;
4895;SDS011;2463;49.948;8.472;2024-02-26T04:26:49;88.20;;;4.70;;
4895;SDS011;2463;49.948;8.472;2024-02-26T04:29:16;88.78;;;5.20;;
4895;SDS011;2463;49.948;8.472;2024-02-26T04:31:42;88.53;;;5.00;;
4895;SDS011;2463;49.948;8.472;2024-02-26T04:34:09;92.05;;;5.10;;
4895;SDS011;2463;49.948;8.472;2024-02-26T04:36:40;88.53;;;4.70;;
4895;SDS011;2463;49.948;8.472;2024-02-26T04:39:06;87.82;;;4.70;;
4895;SDS011;2463;49.948;8.472;2024-02-26T04:41:33;87.78;;;4.80;;
4895;SDS011;2463;49.948;8.472;2024-02-26T04:44:00;89.55;;;5.20;;
4895;SDS011;2463;49.948;8.472;2024-02-26T04:46:27;88.70;;;5.25;;
4895;SDS011;2463;49.948;8.472;2024-02-26T04:48:54;88.82;;;5.40;;
4895;SDS011;2463;49.948;8.472;2024-02-26T04:51:23;86.82;;;4.70;;
4895;SDS011;2463;49.948;8.472;2024-02-26T04:53:50;89.20;;;5.10;;
4895;SDS011;2463;49.948;8.472;2024-02-26T04:56:17;91.65;;;5.50;;
4895;SDS011;2463;49.948;8.472;2024-02-26T04:58:44;90.28;;;5.10;;
4895;SDS011;2463;49.948;8.472;2024-02-26T05:01:10;88.43;;;5.07;;
4895;SDS011;2463;49.948;8.472;2024-02-26T05:03:37;91.72;;;4.93;;
4895;SDS011;2463;49.948;8.472;2024-02-26T05:06:05;88.88;;;4.97;;
4895;SDS011;2463;49.948;8.472;2024-02-26T05:08:32;87.53;;;4.70;;
4895;SDS011;2463;49.948;8.472;2024-02-26T05:10:59;87.63;;;4.90;;
4895;SDS011;2463;49.948;8.472;2024-02-26T05:13:27;88.80;;;4.80;;
4895;SDS011;2463;49.948;8.472;2024-02-26T05:15:53;88.13;;;5.18;;
4895;SDS011;2463;49.948;8.472;2024-02-26T05:18:20;88.88;;;5.22;;
4895;SDS011;2463;49.948;8.472;2024-02-26T05:20:48;88.57;;;5.05;;
4895;SDS011;2463;49.948;8.472;2024-02-26T05:23:15;91.72;;;5.50;;
4895;SDS011;2463;49.948;8.472;2024-02-26T05:25:42;87.82;;;4.88;;
4895;SDS011;2463;49.948;8.472;2024-02-26T05:28:08;88.90;;;5.18;;
4895;SDS011;2463;49.948;8.472;2024-02-26T05:30:35;88.63;;;5.35;;
4895;SDS011;2463;49.948;8.472;2024-02-26T05:33:02;87.85;;;4.57;;
4895;SDS011;2463;49.948;8.472;2024-02-26T05:35:29;93.82;;;5.78;;
4895;SDS011;2463;49.948;8.472;2024-02-26T05:37:55;93.90;;;5.68;;
4895;SDS011;2463;49.948;8.472;2024-02-26T05:40:22;88.32;;;4.50;;
4895;SDS011;2463;49.948;8.472;2024-02-26T05:42:48;88.97;;;4.88;;
4895;SDS011;2463;49.948;8.472;2024-02-26T05:45:15;88.75;;;4.75;;
4895;SDS011;2463;49.948;8.472;2024-02-26T05:47:42;89.82;;;5.72;;
4895;SDS011;2463;49.948;8.472;2024-02-26T05:50:09;91.45;;;5.88;;
4895;SDS011;2463;49.948;8.472;2024-02-26T05:52:37;88.93;;;5.22;;
4895;SDS011;2463;49.948;8.472;2024-02-26T05:55:06;88.25;;;4.75;;
4895;SDS011;2463;49.948;8.472;2024-02-26T05:57:34;88.57;;;5.38;;
4895;SDS011;2463;49.948;8.472;2024-02-26T06:00:01;89.47;;;5.15;;
4895;SDS011;2463;49.948;8.472;2024-02-26T06:02:30;90.00;;;5.75;;
4895;SDS011;2463;49.948;8.472;2024-02-26T06:04:57;90.00;;;5.70;;
4895;SDS011;2463;49.948;8.472;2024-02-26T06:07:24;91.03;;;5.95;;
4895;SDS011;2463;49.948;8.472;2024-02-26T06:09:51;89.15;;;5.40;;
4895;SDS011;2463;49.948;8.472;2024-02-26T06:12:17;88.93;;;5.32;;
4895;SDS011;2463;49.948;8.472;2024-02-26T06:14:44;90.20;;;5.60;;
4895;SDS011;2463;49.948;8.472;2024-02-26T06:17:11;88.80;;;5.30;;
4895;SDS011;2463;49.948;8.472;2024-02-26T06:19:37;90.32;;;5.13;;
4895;SDS011;2463;49.948;8.472;2024-02-26T06:22:04;89.93;;;5.60;;
4895;SDS011;2463;49.948;8.472;2024-02-26T06:24:31;89.03;;;5.38;;
4895;SDS011;2463;49.948;8.472;2024-02-26T06:26:57;89.68;;;5.45;;
4895;SDS011;2463;49.948;8.472;2024-02-26T06:29:24;89.35;;;5.55;;
4895;SDS011;2463;49.948;8.472;2024-02-26T06:31:51;89.20;;;5.90;;
4895;SDS011;2463;49.948;8.472;2024-02-26T06:34:17;89.03;;;5.55;;
4895;SDS011;2463;49.948;8.472;2024-02-26T06:36:44;90.75;;;5.68;;
4895;SDS011;2463;49.948;8.472;2024-02-26T06:39:11;91.40;;;5.82;;
4895;SDS011;2463;49.948;8.472;2024-02-26T06:41:38;90.10;;;5.60;;
4895;SDS011;2463;49.948;8.472;2024-02-26T06:44:05;90.00;;;5.85;;
4895;SDS011;2463;49.948;8.472;2024-02-26T06:46:32;88.47;;;5.82;;
4895;SDS011;2463;49.948;8.472;2024-02-26T06:48:58;91.78;;;6.03;;
4895;SDS011;2463;49.948;8.472;2024-02-26T06:51:25;90.78;;;5.25;;
4895;SDS011;2463;49.948;8.472;2024-02-26T06:53:52;90.60;;;5.72;;
4895;SDS011;2463;49.948;8.472;2024-02-26T06:56:19;90.30;;;6.57;;
4895;SDS011;2463;49.948;8.472;2024-02-26T06:58:46;90.63;;;5.60;;
4895;SDS011;2463;49.948;8.472;2024-02-26T07:01:12;91.65;;;5.93;;
4895;SDS011;2463;49.948;8.472;2024-02-26T07:03:40;97.63;;;5.90;;
4895;SDS011;2463;49.948;8.472;2024-02-26T07:06:08;90.13;;;5.80;;
4895;SDS011;2463;49.948;8.472;2024-02-26T07:08:35;89.93;;;5.68;;
4895;SDS011;2463;49.948;8.472;2024-02-26T07:11:01;91.45;;;6.05;;
4895;SDS011;2463;49.948;8.472;2024-02-26T07:13:28;90.82;;;6.10;;
4895;SDS011;2463;49.948;8.472;2024-02-26T07:15:55;91.93;;;6.25;;
4895;SDS011;2463;49.948;8.472;2024-02-26T07:18:21;91.00;;;6.20;;
4895;SDS011;2463;49.948;8.472;2024-02-26T07:20:48;88.95;;;5.70;;
4895;SDS011;2463;49.948;8.472;2024-02-26T07:23:15;94.25;;;6.07;;
4895;SDS011;2463;49.948;8.472;2024-02-26T07:25:41;89.18;;;5.80;;
4895;SDS011;2463;49.948;8.472;2024-02-26T07:28:13;90.03;;;5.57;;
4895;SDS011;2463;49.948;8.472;2024-02-26T07:30:40;91.50;;;6.13;;
4895;SDS011;2463;49.948;8.472;2024-02-26T07:33:07;90.88;;;6.05;;
4895;SDS011;2463;49.948;8.472;2024-02-26T07:35:34;90.53;;;5.80;;
4895;SDS011;2463;49.948;8.472;2024-02-26T07:38:02;93.43;;;6.55;;
4895;SDS011;2463;49.948;8.472;2024-02-26T07:40:29;92.45;;;6.53;;
4895;SDS011;2463;49.948;8.472;2024-02-26T07:42:56;90.80;;;5.85;;
4895;SDS011;2463;49.948;8.472;2024-02-26T07:45:22;92.53;;;6.45;;
4895;SDS011;2463;49.948;8.472;2024-02-26T07:47:49;96.10;;;6.53;;
4895;SDS011;2463;49.948;8.472;2024-02-26T07:50:18;90.38;;;5.97;;
4895;SDS011;2463;49.948;8.472;2024-02-26T07:52:46;91.40;;;6.57;;
4895;SDS011;2463;49.948;8.472;2024-02-26T07:55:12;90.80;;;6.00;;
4895;SDS011;2463;49.948;8.472;2024-02-26T07:57:41;91.43;;;6.30;;
4895;SDS011;2463;49.948;8.472;2024-02-26T08:00:10;90.57;;;6.05;;
4895;SDS011;2463;49.948;8.472;2024-02-26T08:02:37;90.07;;;5.97;;
4895;SDS011;2463;49.948;8.472;2024-02-26T08:05:03;93.57;;;6.20;;
4895;SDS011;2463;49.948;8.472;2024-02-26T08:07:31;93.20;;;7.38;;
4895;SDS011;2463;49.948;8.472;2024-02-26T08:09:57;90.32;;;5.95;;
4895;SDS011;2463;49.948;8.472;2024-02-26T08:12:24;98.25;;;9.63;;
4895;SDS011;2463;49.948;8.472;2024-02-26T08:14:51;93.47;;;5.90;;
4895;SDS011;2463;49.948;8.472;2024-02-26T08:17:17;89.53;;;5.40;;
4895;SDS011;2463;49.948;8.472;2024-02-26T08:19:44;93.88;;;6.78;;
4895;SDS011;2463;49.948;8.472;2024-02-26T08:22:11;89.82;;;5.88;;
4895;SDS011;2463;49.948;8.472;2024-02-26T08:24:42;93.25;;;6.75;;
4895;SDS011;2463;49.948;8.472;2024-02-26T08:27:08;95.40;;;6.70;;
4895;SDS011;2463;49.948;8.472;2024-02-26T08:29:35;91.15;;;6.30;;
4895;SDS011;2463;49.948;8.472;2024-02-26T08:32:02;88.80;;;5.68;;
4895;SDS011;2463;49.948;8.472;2024-02-26T08:34:29;89.75;;;5.55;;
4895;SDS011;2463;49.948;8.472;2024-02-26T08:36:56;90.95;;;5.93;;
4895;SDS011;2463;49.948;8.472;2024-02-26T08:39:22;89.57;;;5.57;;
4895;SDS011;2463;49.948;8.472;2024-02-26T08:41:49;91.30;;;6.20;;
4895;SDS011;2463;49.948;8.472;2024-02-26T08:44:16;92.43;;;5.80;;
4895;SDS011;2463;49.948;8.472;2024-02-26T08:46:42;90.60;;;5.80;;
4895;SDS011;2463;49.948;8.472;2024-02-26T08:49:09;91.25;;;5.78;;
4895;SDS011;2463;49.948;8.472;2024-02-26T08:51:40;90.30;;;5.80;;
4895;SDS011;2463;49.948;8.472;2024-02-26T08:54:08;92.10;;;6.53;;
4895;SDS011;2463;49.948;8.472;2024-02-26T08:56:35;90.10;;;6.03;;
4895;SDS011;2463;49.948;8.472;2024-02-26T08:59:02;89.88;;;6.30;;
4895;SDS011;2463;49.948;8.472;2024-02-26T09:01:33;92.45;;;6.63;;
4895;SDS011;2463;49.948;8.472;2024-02-26T09:03:59;90.97;;;6.22;;
4895;SDS011;2463;49.948;8.472;2024-02-26T09:06:26;90.10;;;5.90;;
4895;SDS011;2463;49.948;8.472;2024-02-26T09:08:54;91.93;;;7.10;;
4895;SDS011;2463;49.948;8.472;2024-02-26T09:11:24;91.43;;;6.07;;
4895;SDS011;2463;49.948;8.472;2024-02-26T09:13:50;89.85;;;5.93;;
4895;SDS011;2463;49.948;8.472;2024-02-26T09:16:17;90.57;;;5.80;;
4895;SDS011;2463;49.948;8.472;2024-02-26T09:18:43;91.97;;;5.80;;
4895;SDS011;2463;49.948;8.472;2024-02-26T09:21:10;90.55;;;6.40;;
4895;SDS011;2463;49.948;8.472;2024-02-26T09:23:37;91.50;;;6.10;;
4895;SDS011;2463;49.948;8.472;2024-02-26T09:26:05;90.53;;;5.82;;
4895;SDS011;2463;49.948;8.472;2024-02-26T09:28:32;90.28;;;6.70;;
4895;SDS011;2463;49.948;8.472;2024-02-26T09:31:04;90.93;;;6.68;;
4895;SDS011;2463;49.948;8.472;2024-02-26T09:33:31;91.75;;;6.00;;
4895;SDS011;2463;49.948;8.472;2024-02-26T09:35:58;90.03;;;5.63;;
4895;SDS011;2463;49.948;8.472;2024-02-26T09:38:27;88.85;;;6.13;;
4895;SDS011;2463;49.948;8.472;2024-02-26T09:40:53;91.68;;;6.15;;
4895;SDS011;2463;49.948;8.472;2024-02-26T09:43:21;90.82;;;6.13;;
4895;SDS011;2463;49.948;8.472;2024-02-26T09:45:52;92.05;;;6.25;;
4895;SDS011;2463;49.948;8.472;2024-02-26T09:48:19;88.97;;;6.13;;
4895;SDS011;2463;49.948;8.472;2024-02-26T09:50:46;92.63;;;6.80;;
4895;SDS011;2463;49.948;8.472;2024-02-26T09:53:13;90.20;;;6.20;;
4895;SDS011;2463;49.948;8.472;2024-02-26T09:55:41;91.30;;;5.85;;
4895;SDS011;2463;49.948;8.472;2024-02-26T09:58:08;88.90;;;5.72;;
4895;SDS011;2463;49.948;8.472;2024-02-26T10:00:37;88.80;;;5.65;;
4895;SDS011;2463;49.948;8.472;2024-02-26T10:03:05;90.78;;;5.90;;
4895;SDS011;2463;49.948;8.472;2024-02-26T10:05:36;89.40;;;5.75;;
4895;SDS011;2463;49.948;8.472;2024-02-26T10:08:03;90.68;;;5.68;;
4895;SDS011;2463;49.948;8.472;2024-02-26T10:10:30;89.35;;;6.00;;
4895;SDS011;2463;49.948;8.472;2024-02-26T10:12:59;92.05;;;5.82;;
4895;SDS011;2463;49.948;8.472;2024-02-26T10:15:26;88.22;;;5.40;;
4895;SDS011;2463;49.948;8.472;2024-02-26T10:17:54;88.78;;;5.55;;
4895;SDS011;2463;49.948;8.472;2024-02-26T10:20:20;88.60;;;6.10;;
4895;SDS011;2463;49.948;8.472;2024-02-26T10:22:49;89.22;;;5.40;;
4895;SDS011;2463;49.948;8.472;2024-02-26T10:25:17;91.55;;;6.07;;
4895;SDS011;2463;49.948;8.472;2024-02-26T10:27:45;89.05;;;5.75;;
4895;SDS011;2463;49.948;8.472;2024-02-26T10:30:15;88.22;;;5.70;;
4895;SDS011;2463;49.948;8.472;2024-02-26T10:32:50;88.63;;;6.05;;
4895;SDS011;2463;49.948;8.472;2024-02-26T10:35:17;89.25;;;5.60;;
4895;SDS011;2463;49.948;8.472;2024-02-26T10:37:46;93.88;;;7.38;;
4895;SDS011;2463;49.948;8.472;2024-02-26T10:40:14;89.78;;;5.88;;
4895;SDS011;2463;49.948;8.472;2024-02-26T10:42:42;92.75;;;5.70;;
4895;SDS011;2463;49.948;8.472;2024-02-26T10:45:09;87.82;;;5.30;;
4895;SDS011;2463;49.948;8.472;2024-02-26T10:47:36;89.68;;;6.05;;
4895;SDS011;2463;49.948;8.472;2024-02-26T10:50:04;89.22;;;6.00;;
4895;SDS011;2463;49.948;8.472;2024-02-26T10:52:32;88.85;;;5.18;;
4895;SDS011;2463;49.948;8.472;2024-02-26T10:55:01;92.55;;;6.10;;
4895;SDS011;2463;49.948;8.472;2024-02-26T10:57:31;88.40;;;5.57;;
4895;SDS011;2463;49.948;8.472;2024-02-26T11:00:10;87.72;;;5.30;;
4895;SDS011;2463;49.948;8.472;2024-02-26T11:02:40;89.75;;;5.50;;
4895;SDS011;2463;49.948;8.472;2024-02-26T11:05:08;89.15;;;5.75;;
4895;SDS011;2463;49.948;8.472;2024-02-26T11:07:34;87.80;;;5.20;;
4895;SDS011;2463;49.948;8.472;2024-02-26T11:10:03;88.32;;;5.40;;
4895;SDS011;2463;49.948;8.472;2024-02-26T11:12:31;87.75;;;5.40;;
4895;SDS011;2463;49.948;8.472;2024-02-26T11:14:59;87.35;;;5.20;;
4895;SDS011;2463;49.948;8.472;2024-02-26T11:17:28;88.00;;;5.05;;
4895;SDS011;2463;49.948;8.472;2024-02-26T11:19:58;88.07;;;5.45;;
4895;SDS011;2463;49.948;8.472;2024-02-26T11:22:26;87.28;;;5.13;;
4895;SDS011;2463;49.948;8.472;2024-02-26T11:24:53;86.28;;;4.32;;
4895;SDS011;2463;49.948;8.472;2024-02-26T11:27:21;85.97;;;5.10;;
4895;SDS011;2463;49.948;8.472;2024-02-26T11:29:52;87.38;;;5.40;;
4895;SDS011;2463;49.948;8.472;2024-02-26T11:32:20;86.22;;;4.93;;
4895;SDS011;2463;49.948;8.472;2024-02-26T11:34:47;88.03;;;5.60;;
4895;SDS011;2463;49.948;8.472;2024-02-26T11:37:15;90.05;;;5.70;;
4895;SDS011;2463;49.948;8.472;2024-02-26T11:39:44;86.85;;;4.82;;
4895;SDS011;2463;49.948;8.472;2024-02-26T11:42:13;87.38;;;4.85;;
4895;SDS011;2463;49.948;8.472;2024-02-26T11:44:41;86.72;;;5.03;;
4895;SDS011;2463;49.948;8.472;2024-02-26T11:49:39;87.00;;;5.10;;
4895;SDS011;2463;49.948;8.472;2024-02-26T11:52:07;87.30;;;5.18;;
4895;SDS011;2463;49.948;8.472;2024-02-26T12:00:12;87.38;;;4.60;;
4895;SDS011;2463;49.948;8.472;2024-02-26T12:05:16;86.22;;;4.82;;
4895;SDS011;2463;49.948;8.472;2024-02-26T12:07:47;85.97;;;4.47;;
4895;SDS011;2463;49.948;8.472;2024-02-26T12:10:35;87.57;;;4.70;;
4895;SDS011;2463;49.948;8.472;2024-02-26T12:13:06;88.68;;;4.93;;
4895;SDS011;2463;49.948;8.472;2024-02-26T12:15:46;86.63;;;4.78;;
4895;SDS011;2463;49.948;8.472;2024-02-26T12:18:22;85.63;;;4.40;;
4895;SDS011;2463;49.948;8.472;2024-02-26T12:20:58;86.97;;;5.05;;
4895;SDS011;2463;49.948;8.472;2024-02-26T12:23:27;89.47;;;5.20;;
4895;SDS011;2463;49.948;8.472;2024-02-26T12:26:00;87.63;;;4.97;;
4895;SDS011;2463;49.948;8.472;2024-02-26T12:28:31;87.78;;;4.95;;
4895;SDS011;2463;49.948;8.472;2024-02-26T12:30:58;86.65;;;4.95;;
4895;SDS011;2463;49.948;8.472;2024-02-26T12:33:26;87.20;;;5.10;;
4895;SDS011;2463;49.948;8.472;2024-02-26T12:35:53;86.90;;;4.80;;
4895;SDS011;2463;49.948;8.472;2024-02-26T12:38:20;89.72;;;5.00;;
4895;SDS011;2463;49.948;8.472;2024-02-26T12:40:47;88.80;;;5.10;;
4895;SDS011;2463;49.948;8.472;2024-02-26T12:43:15;86.65;;;4.60;;
4895;SDS011;2463;49.948;8.472;2024-02-26T12:45:42;88.38;;;5.40;;
4895;SDS011;2463;49.948;8.472;2024-02-26T12:48:14;91.30;;;5.50;;
4895;SDS011;2463;49.948;8.472;2024-02-26T12:50:44;87.05;;;4.90;;
4895;SDS011;2463;49.948;8.472;2024-02-26T12:53:13;87.30;;;4.95;;
4895;SDS011;2463;49.948;8.472;2024-02-26T12:55:39;87.25;;;5.00;;
4895;SDS011;2463;49.948;8.472;2024-02-26T12:58:07;87.07;;;4.68;;
4895;SDS011;2463;49.948;8.472;2024-02-26T13:00:34;88.32;;;5.38;;
4895;SDS011;2463;49.948;8.472;2024-02-26T13:03:02;88.50;;;4.78;;
4895;SDS011;2463;49.948;8.472;2024-02-26T13:05:29;87.18;;;4.85;;
4895;SDS011;2463;49.948;8.472;2024-02-26T13:07:57;86.68;;;4.50;;
4895;SDS011;2463;49.948;8.472;2024-02-26T13:10:24;86.13;;;4.40;;
4895;SDS011;2463;49.948;8.472;2024-02-26T13:12:51;84.80;;;4.40;;
4895;SDS011;2463;49.948;8.472;2024-02-26T13:15:19;84.53;;;4.43;;
4895;SDS011;2463;49.948;8.472;2024-02-26T13:17:47;85.38;;;4.10;;
4895;SDS011;2463;49.948;8.472;2024-02-26T13:20:30;84.32;;;3.80;;
4895;SDS011;2463;49.948;8.472;2024-02-26T13:23:01;86.72;;;4.68;;
4895;SDS011;2463;49.948;8.472;2024-02-26T13:25:32;86.32;;;4.50;;
4895;SDS011;2463;49.948;8.472;2024-02-26T13:28:06;107.70;;;6.95;;
4895;SDS011;2463;49.948;8.472;2024-02-26T13:31:02;86.10;;;4.38;;
4895;SDS011;2463;49.948;8.472;2024-02-26T13:33:30;85.75;;;4.50;;
4895;SDS011;2463;49.948;8.472;2024-02-26T13:35:58;85.28;;;4.70;;
4895;SDS011;2463;49.948;8.472;2024-02-26T13:38:26;85.80;;;4.60;;
4895;SDS011;2463;49.948;8.472;2024-02-26T13:40:54;85.22;;;4.20;;
4895;SDS011;2463;49.948;8.472;2024-02-26T13:43:21;86.63;;;4.30;;
4895;SDS011;2463;49.948;8.472;2024-02-26T13:45:47;86.43;;;4.80;;
4895;SDS011;2463;49.948;8.472;2024-02-26T13:48:14;86.57;;;4.88;;
4895;SDS011;2463;49.948;8.472;2024-02-26T13:50:42;85.80;;;4.15;;
4895;SDS011;2463;49.948;8.472;2024-02-26T13:53:09;85.85;;;4.03;;
4895;SDS011;2463;49.948;8.472;2024-02-26T13:55:36;85.75;;;4.57;;
4895;SDS011;2463;49.948;8.472;2024-02-26T13:58:02;88.95;;;5.75;;
4895;SDS011;2463;49.948;8.472;2024-02-26T14:00:29;87.05;;;5.03;;
4895;SDS011;2463;49.948;8.472;2024-02-26T14:03:01;86.03;;;4.60;;
4895;SDS011;2463;49.948;8.472;2024-02-26T14:05:28;87.45;;;4.22;;
4895;SDS011;2463;49.948;8.472;2024-02-26T14:07:56;91.35;;;4.60;;
4895;SDS011;2463;49.948;8.472;2024-02-26T14:10:23;86.03;;;4.32;;
4895;SDS011;2463;49.948;8.472;2024-02-26T14:12:50;84.88;;;4.03;;
4895;SDS011;2463;49.948;8.472;2024-02-26T14:15:17;88.00;;;4.90;;
4895;SDS011;2463;49.948;8.472;2024-02-26T14:17:44;87.22;;;4.60;;
4895;SDS011;2463;49.948;8.472;2024-02-26T14:20:12;86.60;;;4.32;;
4895;SDS011;2463;49.948;8.472;2024-02-26T14:22:39;86.55;;;4.50;;
4895;SDS011;2463;49.948;8.472;2024-02-26T14:25:05;85.63;;;4.10;;
4895;SDS011;2463;49.948;8.472;2024-02-26T14:27:35;87.03;;;4.65;;
4895;SDS011;2463;49.948;8.472;2024-02-26T14:30:02;86.65;;;4.70;;
4895;SDS011;2463;49.948;8.472;2024-02-26T14:32:29;86.45;;;4.78;;
4895;SDS011;2463;49.948;8.472;2024-02-26T14:34:57;91.07;;;5.10;;
4895;SDS011;2463;49.948;8.472;2024-02-26T14:37:24;90.88;;;5.13;;
4895;SDS011;2463;49.948;8.472;2024-02-26T14:39:50;88.60;;;5.18;;
4895;SDS011;2463;49.948;8.472;2024-02-26T14:42:18;88.45;;;5.45;;
4895;SDS011;2463;49.948;8.472;2024-02-26T14:44:45;86.97;;;4.70;;
4895;SDS011;2463;49.948;8.472;2024-02-26T14:47:14;87.38;;;5.32;;
4895;SDS011;2463;49.948;8.472;2024-02-26T14:49:40;87.93;;;5.03;;
4895;SDS011;2463;49.948;8.472;2024-02-26T14:52:07;87.28;;;5.10;;
4895;SDS011;2463;49.948;8.472;2024-02-26T14:54:34;87.80;;;5.50;;
4895;SDS011;2463;49.948;8.472;2024-02-26T14:57:05;87.57;;;4.80;;
4895;SDS011;2463;49.948;8.472;2024-02-26T14:59:33;88.18;;;4.88;;
4895;SDS011;2463;49.948;8.472;2024-02-26T15:02:00;86.28;;;4.75;;
4895;SDS011;2463;49.948;8.472;2024-02-26T15:04:26;86.60;;;4.80;;
4895;SDS011;2463;49.948;8.472;2024-02-26T15:06:53;88.47;;;5.32;;
4895;SDS011;2463;49.948;8.472;2024-02-26T15:09:20;87.53;;;5.10;;
4895;SDS011;2463;49.948;8.472;2024-02-26T15:11:47;87.45;;;4.70;;
4895;SDS011;2463;49.948;8.472;2024-02-26T15:14:14;88.57;;;5.70;;